sensor_id;sensor_type;location;lat;lon;timestamp;pressure;altitude;pressure_sealevel;temperature;humidity
53262;BME280;39658;51.090;-1.786;2023-02-28T00:00:39;102652.69;;;-1.87;100.00
53262;BME280;39658;51.090;-1.786;2023-02-28T00:03:06;102650.94;;;-1.87;100.00
53262;BME280;39658;51.090;-1.786;2023-02-28T00:05:33;102660.50;;;-1.83;100.00
53262;BME280;39658;51.090;-1.786;2023-02-28T00:08:00;102662.34;;;-1.77;100.00
53262;BME280;39658;51.090;-1.786;2023-02-28T00:10:28;102658.00;;;-1.78;100.00
53262;BME280;39658;51.090;-1.786;2023-02-28T00:12:58;102660.47;;;-1.84;100.00
53262;BME280;39658;51.090;-1.786;2023-02-28T00:15:27;102662.22;;;-1.85;100.00
53262;BME280;39658;51.090;-1.786;2023-02-28T00:17:54;102667.31;;;-1.89;100.00
53262;BME280;39658;51.090;-1.786;2023-02-28T00:20:21;102670.78;;;-1.87;100.00
53262;BME280;39658;51.090;-1.786;2023-02-28T00:22:50;102663.91;;;-1.85;100.00
53262;BME280;39658;51.090;-1.786;2023-02-28T00:25:19;102663.91;;;-1.85;100.00
53262;BME280;39658;51.090;-1.786;2023-02-28T00:27:47;102670.84;;;-1.83;100.00
53262;BME280;39658;51.090;-1.786;2023-02-28T00:30:16;102671.63;;;-1.87;100.00
53262;BME280;39658;51.090;-1.786;2023-02-28T00:32:44;102669.03;;;-1.88;100.00
53262;BME280;39658;51.090;-1.786;2023-02-28T00:35:12;102659.56;;;-1.88;100.00
53262;BME280;39658;51.090;-1.786;2023-02-28T00:37:39;102666.50;;;-1.85;100.00
53262;BME280;39658;51.090;-1.786;2023-02-28T00:40:07;102673.28;;;-1.92;100.00
53262;BME280;39658;51.090;-1.786;2023-02-28T00:42:35;102668.06;;;-1.95;100.00
53262;BME280;39658;51.090;-1.786;2023-02-28T00:45:02;102669.84;;;-1.92;100.00
53262;BME280;39658;51.090;-1.786;2023-02-28T00:47:30;102678.44;;;-1.93;100.00
53262;BME280;39658;51.090;-1.786;2023-02-28T00:49:59;102676.69;;;-1.94;100.00
53262;BME280;39658;51.090;-1.786;2023-02-28T00:52:26;102673.22;;;-1.95;100.00
53262;BME280;39658;51.090;-1.786;2023-02-28T00:54:53;102670.56;;;-2.00;100.00
53262;BME280;39658;51.090;-1.786;2023-02-28T00:57:19;102674.09;;;-1.94;100.00
53262;BME280;39658;51.090;-1.786;2023-02-28T00:59:46;102673.97;;;-2.01;100.00
53262;BME280;39658;51.090;-1.786;2023-02-28T01:02:13;102663.59;;;-2.04;100.00
53262;BME280;39658;51.090;-1.786;2023-02-28T01:04:40;102678.25;;;-2.04;100.00
53262;BME280;39658;51.090;-1.786;2023-02-28T01:07:09;102674.66;;;-2.12;100.00
53262;BME280;39658;51.090;-1.786;2023-02-28T01:09:35;102680.81;;;-2.04;100.00
53262;BME280;39658;51.090;-1.786;2023-02-28T01:12:03;102690.31;;;-2.05;100.00
53262;BME280;39658;51.090;-1.786;2023-02-28T01:14:30;102682.41;;;-2.12;100.00
53262;BME280;39658;51.090;-1.786;2023-02-28T01:16:56;102678.16;;;-2.09;100.00
53262;BME280;39658;51.090;-1.786;2023-02-28T01:19:23;102688.56;;;-2.06;100.00
53262;BME280;39658;51.090;-1.786;2023-02-28T01:21:50;102681.56;;;-2.10;100.00
53262;BME280;39658;51.090;-1.786;2023-02-28T01:24:18;102684.88;;;-2.19;100.00
53262;BME280;39658;51.090;-1.786;2023-02-28T01:26:45;102677.09;;;-2.20;100.00
53262;BME280;39658;51.090;-1.786;2023-02-28T01:29:12;102682.25;;;-2.20;100.00
53262;BME280;39658;51.090;-1.786;2023-02-28T01:31:38;102683.09;;;-2.21;100.00
53262;BME280;39658;51.090;-1.786;2023-02-28T01:34:05;102689.97;;;-2.23;100.00
53262;BME280;39658;51.090;-1.786;2023-02-28T01:36:32;102694.19;;;-2.28;100.00
53262;BME280;39658;51.090;-1.786;2023-02-28T01:38:58;102687.13;;;-2.36;100.00
53262;BME280;39658;51.090;-1.786;2023-02-28T01:41:28;102689.53;;;-2.45;100.00
53262;BME280;39658;51.090;-1.786;2023-02-28T01:43:59;102688.53;;;-2.53;100.00
53262;BME280;39658;51.090;-1.786;2023-02-28T01:46:28;102687.44;;;-2.63;100.00
53262;BME280;39658;51.090;-1.786;2023-02-28T01:49:01;102694.19;;;-2.71;100.00
53262;BME280;39658;51.090;-1.786;2023-02-28T01:51:35;102686.28;;;-2.79;100.00
53262;BME280;39658;51.090;-1.786;2023-02-28T01:54:06;102673.94;;;-2.92;100.00
53262;BME280;39658;51.090;-1.786;2023-02-28T01:56:43;102685.06;;;-2.96;100.00
53262;BME280;39658;51.090;-1.786;2023-02-28T01:59:18;102686.63;;;-3.03;100.00
53262;BME280;39658;51.090;-1.786;2023-02-28T02:01:47;102676.28;;;-3.04;100.00
53262;BME280;39658;51.090;-1.786;2023-02-28T02:04:14;102684.88;;;-3.04;100.00
53262;BME280;39658;51.090;-1.786;2023-02-28T02:06:43;102680.66;;;-3.00;100.00
53262;BME280;39658;51.090;-1.786;2023-02-28T02:09:11;102682.38;;;-3.01;100.00
53262;BME280;39658;51.090;-1.786;2023-02-28T02:11:41;102682.34;;;-3.02;100.00
53262;BME280;39658;51.090;-1.786;2023-02-28T02:14:16;102679.72;;;-3.04;100.00
53262;BME280;39658;51.090;-1.786;2023-02-28T02:17:10;102678.19;;;-2.94;100.00
53262;BME280;39658;51.090;-1.786;2023-02-28T02:25:53;102679.09;;;-2.92;100.00
53262;BME280;39658;51.090;-1.786;2023-02-28T02:31:39;102676.31;;;-3.03;100.00
53262;BME280;39658;51.090;-1.786;2023-02-28T02:34:24;102671.97;;;-3.04;100.00
53262;BME280;39658;51.090;-1.786;2023-02-28T02:37:00;102666.78;;;-3.05;100.00
53262;BME280;39658;51.090;-1.786;2023-02-28T02:39:32;102669.47;;;-3.01;100.00
53262;BME280;39658;51.090;-1.786;2023-02-28T02:42:05;102661.81;;;-2.96;100.00
53262;BME280;39658;51.090;-1.786;2023-02-28T02:44:40;102661.81;;;-2.96;100.00
53262;BME280;39658;51.090;-1.786;2023-02-28T02:47:12;102665.41;;;-2.90;100.00
53262;BME280;39658;51.090;-1.786;2023-02-28T02:49:42;102666.28;;;-2.88;100.00
53262;BME280;39658;51.090;-1.786;2023-02-28T02:52:14;102674.03;;;-2.88;100.00
53262;BME280;39658;51.090;-1.786;2023-02-28T02:54:45;102669.75;;;-2.87;100.00
53262;BME280;39658;51.090;-1.786;2023-02-28T02:57:19;102672.31;;;-2.89;100.00
53262;BME280;39658;51.090;-1.786;2023-02-28T02:59:48;102672.22;;;-2.93;100.00
53262;BME280;39658;51.090;-1.786;2023-02-28T03:02:17;102674.75;;;-2.95;100.00
53262;BME280;39658;51.090;-1.786;2023-02-28T03:04:50;102670.34;;;-2.99;100.00
53262;BME280;39658;51.090;-1.786;2023-02-28T03:07:18;102666.88;;;-3.01;100.00
53262;BME280;39658;51.090;-1.786;2023-02-28T03:09:50;102672.13;;;-2.98;100.00
53262;BME280;39658;51.090;-1.786;2023-02-28T03:12:18;102669.66;;;-2.92;100.00
53262;BME280;39658;51.090;-1.786;2023-02-28T03:14:55;102679.09;;;-2.92;100.00
53262;BME280;39658;51.090;-1.786;2023-02-28T03:17:48;102671.31;;;-2.94;100.00
53262;BME280;39658;51.090;-1.786;2023-02-28T03:20:31;102676.66;;;-2.86;100.00
53262;BME280;39658;51.090;-1.786;2023-02-28T03:23:15;102678.38;;;-2.86;100.00
53262;BME280;39658;51.090;-1.786;2023-02-28T03:25:53;102672.31;;;-2.89;100.00
53262;BME280;39658;51.090;-1.786;2023-02-28T03:28:31;102675.66;;;-2.93;100.00
53262;BME280;39658;51.090;-1.786;2023-02-28T03:31:02;102686.00;;;-2.91;100.00
53262;BME280;39658;51.090;-1.786;2023-02-28T03:33:35;102683.47;;;-2.90;100.00
53262;BME280;39658;51.090;-1.786;2023-02-28T03:36:09;102677.44;;;-2.90;100.00
53262;BME280;39658;51.090;-1.786;2023-02-28T03:38:40;102674.06;;;-2.86;100.00
53262;BME280;39658;51.090;-1.786;2023-02-28T03:41:13;102680.28;;;-2.78;100.00
53262;BME280;39658;51.090;-1.786;2023-02-28T03:43:44;102682.88;;;-2.78;100.00
53262;BME280;39658;51.090;-1.786;2023-02-28T03:46:17;102691.44;;;-2.79;100.00
53262;BME280;39658;51.090;-1.786;2023-02-28T03:48:50;102690.53;;;-2.81;100.00
53262;BME280;39658;51.090;-1.786;2023-02-28T03:51:21;102686.28;;;-2.79;100.00
53262;BME280;39658;51.090;-1.786;2023-02-28T03:53:52;102690.50;;;-2.82;100.00
53262;BME280;39658;51.090;-1.786;2023-02-28T03:56:20;102687.88;;;-2.85;100.00
53262;BME280;39658;51.090;-1.786;2023-02-28T03:58:53;102685.25;;;-2.87;100.00
53262;BME280;39658;51.090;-1.786;2023-02-28T04:01:25;102687.84;;;-2.87;100.00
53262;BME280;39658;51.090;-1.786;2023-02-28T04:03:53;102679.94;;;-2.93;100.00
53262;BME280;39658;51.090;-1.786;2023-02-28T04:06:23;102676.50;;;-2.92;100.00
53262;BME280;39658;51.090;-1.786;2023-02-28T04:08:50;102665.63;;;-2.79;100.00
53262;BME280;39658;51.090;-1.786;2023-02-28T04:11:24;102667.56;;;-2.68;100.00
53262;BME280;39658;51.090;-1.786;2023-02-28T04:13:53;102673.75;;;-2.60;100.00
53262;BME280;39658;51.090;-1.786;2023-02-28T04:16:20;102671.09;;;-2.63;100.00
53262;BME280;39658;51.090;-1.786;2023-02-28T04:18:47;102665.88;;;-2.66;100.00
53262;BME280;39658;51.090;-1.786;2023-02-28T04:21:14;102675.31;;;-2.68;100.00
53262;BME280;39658;51.090;-1.786;2023-02-28T04:23:42;102676.06;;;-2.73;100.00
53262;BME280;39658;51.090;-1.786;2023-02-28T04:26:09;102679.47;;;-2.74;100.00
53262;BME280;39658;51.090;-1.786;2023-02-28T04:28:37;102671.88;;;-2.67;100.00
53262;BME280;39658;51.090;-1.786;2023-02-28T04:31:04;102679.63;;;-2.67;100.00
53262;BME280;39658;51.090;-1.786;2023-02-28T04:33:32;102683.88;;;-2.69;100.00
53262;BME280;39658;51.090;-1.786;2023-02-28T04:36:00;102683.13;;;-2.65;100.00
53262;BME280;39658;51.090;-1.786;2023-02-28T04:38:28;102680.53;;;-2.65;100.00
53262;BME280;39658;51.090;-1.786;2023-02-28T04:40:58;102686.53;;;-2.66;100.00
53262;BME280;39658;51.090;-1.786;2023-02-28T04:43:26;102692.66;;;-2.61;100.00
53262;BME280;39658;51.090;-1.786;2023-02-28T04:45:53;102691.91;;;-2.56;100.00
53262;BME280;39658;51.090;-1.786;2023-02-28T04:48:22;102699.19;;;-2.36;100.00
53262;BME280;39658;51.090;-1.786;2023-02-28T04:50:49;102692.53;;;-2.23;100.00
53262;BME280;39658;51.090;-1.786;2023-02-28T04:53:16;102687.34;;;-2.25;100.00
53262;BME280;39658;51.090;-1.786;2023-02-28T04:55:42;102696.97;;;-2.16;100.00
53262;BME280;39658;51.090;-1.786;2023-02-28T04:58:11;102697.84;;;-2.15;100.00
53262;BME280;39658;51.090;-1.786;2023-02-28T05:00:38;102701.34;;;-2.12;100.00
53262;BME280;39658;51.090;-1.786;2023-02-28T05:03:05;102704.66;;;-2.19;100.00
53262;BME280;39658;51.090;-1.786;2023-02-28T05:05:31;102709.13;;;-2.12;100.00
53262;BME280;39658;51.090;-1.786;2023-02-28T05:07:58;102699.72;;;-2.07;100.00
53262;BME280;39658;51.090;-1.786;2023-02-28T05:10:25;102704.88;;;-2.07;100.00
53262;BME280;39658;51.090;-1.786;2023-02-28T05:12:52;102712.56;;;-2.11;100.00
53262;BME280;39658;51.090;-1.786;2023-02-28T05:15:20;102718.44;;;-2.20;100.00
53262;BME280;39658;51.090;-1.786;2023-02-28T05:17:47;102720.03;;;-2.28;100.00
53262;BME280;39658;51.090;-1.786;2023-02-28T05:20:13;102719.06;;;-2.32;100.00
53262;BME280;39658;51.090;-1.786;2023-02-28T05:22:41;102719.84;;;-2.38;100.00
53262;BME280;39658;51.090;-1.786;2023-02-28T05:25:09;102720.72;;;-2.36;100.00
53262;BME280;39658;51.090;-1.786;2023-02-28T05:27:37;102722.31;;;-2.42;100.00
53262;BME280;39658;51.090;-1.786;2023-02-28T05:30:05;102729.09;;;-2.47;100.00
53262;BME280;39658;51.090;-1.786;2023-02-28T05:32:37;102726.47;;;-2.49;100.00
53262;BME280;39658;51.090;-1.786;2023-02-28T05:35:04;102733.41;;;-2.48;100.00
53262;BME280;39658;51.090;-1.786;2023-02-28T05:37:31;102730.00;;;-2.45;100.00
53262;BME280;39658;51.090;-1.786;2023-02-28T05:39:58;102724.81;;;-2.47;100.00
53262;BME280;39658;51.090;-1.786;2023-02-28T05:42:25;102729.13;;;-2.46;100.00
53262;BME280;39658;51.090;-1.786;2023-02-28T05:44:51;102738.63;;;-2.45;100.00
53262;BME280;39658;51.090;-1.786;2023-02-28T05:47:18;102737.75;;;-2.45;100.00
53262;BME280;39658;51.090;-1.786;2023-02-28T05:49:46;102732.38;;;-2.56;100.00
53262;BME280;39658;51.090;-1.786;2023-02-28T05:52:14;102733.28;;;-2.54;100.00
53262;BME280;39658;51.090;-1.786;2023-02-28T05:54:41;102722.25;;;-2.45;100.00
53262;BME280;39658;51.090;-1.786;2023-02-28T05:57:08;102730.16;;;-2.38;100.00
53262;BME280;39658;51.090;-1.786;2023-02-28T05:59:34;102730.06;;;-2.42;100.00
53262;BME280;39658;51.090;-1.786;2023-02-28T06:02:05;102729.28;;;-2.38;100.00
53262;BME280;39658;51.090;-1.786;2023-02-28T06:04:32;102721.53;;;-2.38;100.00
53262;BME280;39658;51.090;-1.786;2023-02-28T06:07:00;102718.91;;;-2.40;100.00
53262;BME280;39658;51.090;-1.786;2023-02-28T06:09:27;102718.25;;;-2.31;100.00
53262;BME280;39658;51.090;-1.786;2023-02-28T06:11:54;102718.28;;;-2.28;100.00
53262;BME280;39658;51.090;-1.786;2023-02-28T06:14:21;102726.00;;;-2.29;100.00
53262;BME280;39658;51.090;-1.786;2023-02-28T06:16:47;102724.19;;;-2.33;100.00
53262;BME280;39658;51.090;-1.786;2023-02-28T06:19:14;102722.34;;;-2.41;100.00
53262;BME280;39658;51.090;-1.786;2023-02-28T06:21:41;102714.56;;;-2.42;100.00
53262;BME280;39658;51.090;-1.786;2023-02-28T06:24:10;102725.84;;;-2.39;100.00
53262;BME280;39658;51.090;-1.786;2023-02-28T06:26:36;102728.47;;;-2.36;100.00
53262;BME280;39658;51.090;-1.786;2023-02-28T06:29:03;102726.78;;;-2.33;100.00
53262;BME280;39658;51.090;-1.786;2023-02-28T06:31:30;102719.03;;;-2.33;100.00
53262;BME280;39658;51.090;-1.786;2023-02-28T06:33:57;102732.16;;;-2.23;100.00
53262;BME280;39658;51.090;-1.786;2023-02-28T06:36:23;102721.03;;;-2.20;100.00
53262;BME280;39658;51.090;-1.786;2023-02-28T06:38:50;102727.91;;;-2.19;100.00
53262;BME280;39658;51.090;-1.786;2023-02-28T06:41:22;102730.44;;;-2.22;100.00
53262;BME280;39658;51.090;-1.786;2023-02-28T06:43:50;102734.69;;;-2.26;100.00
53262;BME280;39658;51.090;-1.786;2023-02-28T06:46:16;102746.63;;;-2.32;100.00
53262;BME280;39658;51.090;-1.786;2023-02-28T06:48:44;102740.78;;;-2.22;100.00
53262;BME280;39658;51.090;-1.786;2023-02-28T06:51:13;102744.19;;;-2.25;100.00
53262;BME280;39658;51.090;-1.786;2023-02-28T06:53:40;102739.84;;;-2.26;100.00
53262;BME280;39658;51.090;-1.786;2023-02-28T06:56:13;102742.66;;;-2.15;100.00
53262;BME280;39658;51.090;-1.786;2023-02-28T06:58:41;102747.78;;;-2.17;100.00
53262;BME280;39658;51.090;-1.786;2023-02-28T07:01:09;102752.34;;;-2.05;100.00
53262;BME280;39658;51.090;-1.786;2023-02-28T07:03:36;102749.75;;;-2.05;100.00
53262;BME280;39658;51.090;-1.786;2023-02-28T07:06:04;102745.44;;;-2.04;100.00
53262;BME280;39658;51.090;-1.786;2023-02-28T07:08:31;102749.78;;;-2.03;100.00
53262;BME280;39658;51.090;-1.786;2023-02-28T07:10:58;102758.59;;;-1.92;100.00
53262;BME280;39658;51.090;-1.786;2023-02-28T07:13:25;102752.59;;;-1.91;100.00
53262;BME280;39658;51.090;-1.786;2023-02-28T07:15:58;102754.47;;;-1.82;100.00
53262;BME280;39658;51.090;-1.786;2023-02-28T07:18:26;102762.28;;;-1.79;100.00
53262;BME280;39658;51.090;-1.786;2023-02-28T07:20:53;102765.81;;;-1.75;100.00
53262;BME280;39658;51.090;-1.786;2023-02-28T07:23:20;102767.56;;;-1.73;100.00
53262;BME280;39658;51.090;-1.786;2023-02-28T07:25:49;102771.00;;;-1.74;100.00
53262;BME280;39658;51.090;-1.786;2023-02-28T07:28:16;102763.28;;;-1.72;100.00
53262;BME280;39658;51.090;-1.786;2023-02-28T07:30:42;102765.06;;;-1.68;100.00
53262;BME280;39658;51.090;-1.786;2023-02-28T07:33:11;102763.41;;;-1.65;100.00
53262;BME280;39658;51.090;-1.786;2023-02-28T07:35:37;102777.25;;;-1.61;100.00
53262;BME280;39658;51.090;-1.786;2023-02-28T07:38:04;102768.63;;;-1.61;100.00
53262;BME280;39658;51.090;-1.786;2023-02-28T07:40:32;102770.56;;;-1.50;100.00
53262;BME280;39658;51.090;-1.786;2023-02-28T07:43:00;102769.88;;;-1.39;100.00
53262;BME280;39658;51.090;-1.786;2023-02-28T07:45:27;102780.41;;;-1.29;100.00
53262;BME280;39658;51.090;-1.786;2023-02-28T07:47:55;102783.91;;;-1.25;100.00
53262;BME280;39658;51.090;-1.786;2023-02-28T07:50:23;102777.00;;;-1.24;100.00
53262;BME280;39658;51.090;-1.786;2023-02-28T07:52:50;102772.75;;;-1.21;100.00
53262;BME280;39658;51.090;-1.786;2023-02-28T07:55:17;102773.78;;;-1.10;100.00
53262;BME280;39658;51.090;-1.786;2023-02-28T07:57:44;102779.84;;;-1.08;100.00
53262;BME280;39658;51.090;-1.786;2023-02-28T08:00:12;102774.78;;;-1.00;100.00
53262;BME280;39658;51.090;-1.786;2023-02-28T08:02:39;102775.72;;;-0.96;100.00
53262;BME280;39658;51.090;-1.786;2023-02-28T08:05:07;102776.75;;;-0.85;100.00
53262;BME280;39658;51.090;-1.786;2023-02-28T08:07:35;102778.44;;;-0.88;100.00
53262;BME280;39658;51.090;-1.786;2023-02-28T08:10:02;102783.69;;;-0.84;100.00
53262;BME280;39658;51.090;-1.786;2023-02-28T08:12:30;102787.19;;;-0.80;100.00
53262;BME280;39658;51.090;-1.786;2023-02-28T08:14:57;102791.53;;;-0.78;100.00
53262;BME280;39658;51.090;-1.786;2023-02-28T08:17:24;102793.34;;;-0.72;100.00
53262;BME280;39658;51.090;-1.786;2023-02-28T08:19:51;102792.63;;;-0.62;100.00
53262;BME280;39658;51.090;-1.786;2023-02-28T08:22:17;102790.19;;;-0.51;100.00
53262;BME280;39658;51.090;-1.786;2023-02-28T08:24:46;102788.59;;;-0.40;100.00
53262;BME280;39658;51.090;-1.786;2023-02-28T08:27:13;102794.78;;;-0.28;100.00
53262;BME280;39658;51.090;-1.786;2023-02-28T08:29:39;102798.44;;;-0.14;100.00
53262;BME280;39658;51.090;-1.786;2023-02-28T08:32:07;102803.81;;;0.06;100.00
53262;BME280;39658;51.090;-1.786;2023-02-28T08:34:33;102796.13;;;0.15;100.00
53262;BME280;39658;51.090;-1.786;2023-02-28T08:37:00;102803.25;;;0.32;100.00
53262;BME280;39658;51.090;-1.786;2023-02-28T08:39:27;102793.88;;;0.48;100.00
53262;BME280;39658;51.090;-1.786;2023-02-28T08:41:55;102799.25;;;0.68;100.00
53262;BME280;39658;51.090;-1.786;2023-02-28T08:44:22;102797.66;;;0.85;100.00
53262;BME280;39658;51.090;-1.786;2023-02-28T08:46:49;102792.50;;;0.92;100.00
53262;BME280;39658;51.090;-1.786;2023-02-28T08:49:15;102787.38;;;0.99;100.00
53262;BME280;39658;51.090;-1.786;2023-02-28T08:51:42;102794.41;;;1.14;100.00
53262;BME280;39658;51.090;-1.786;2023-02-28T08:54:09;102793.63;;;1.28;100.00
53262;BME280;39658;51.090;-1.786;2023-02-28T08:56:37;102804.97;;;1.43;100.00
53262;BME280;39658;51.090;-1.786;2023-02-28T08:59:06;102797.28;;;1.60;100.00
53262;BME280;39658;51.090;-1.786;2023-02-28T09:01:33;102798.19;;;1.73;100.00
53262;BME280;39658;51.090;-1.786;2023-02-28T09:04:01;102801.75;;;1.97;100.00
53262;BME280;39658;51.090;-1.786;2023-02-28T09:06:28;102795.75;;;2.21;100.00
53262;BME280;39658;51.090;-1.786;2023-02-28T09:08:56;102794.94;;;2.79;100.00
53262;BME280;39658;51.090;-1.786;2023-02-28T09:11:25;102802.69;;;3.36;100.00
53262;BME280;39658;51.090;-1.786;2023-02-28T09:13:52;102799.13;;;3.68;100.00
53262;BME280;39658;51.090;-1.786;2023-02-28T09:16:22;102793.00;;;3.66;100.00
53262;BME280;39658;51.090;-1.786;2023-02-28T09:18:48;102800.75;;;3.88;100.00
53262;BME280;39658;51.090;-1.786;2023-02-28T09:21:17;102797.47;;;4.90;100.00
53262;BME280;39658;51.090;-1.786;2023-02-28T09:23:45;102802.28;;;6.67;100.00
53262;BME280;39658;51.090;-1.786;2023-02-28T09:26:14;102787.75;;;7.87;100.00
53262;BME280;39658;51.090;-1.786;2023-02-28T09:28:41;102756.63;;;9.16;100.00
53262;BME280;39658;51.090;-1.786;2023-02-28T09:31:12;102687.53;;;10.51;100.00
53262;BME280;39658;51.090;-1.786;2023-02-28T09:33:40;102636.56;;;10.99;100.00
53262;BME280;39658;51.090;-1.786;2023-02-28T09:36:08;102630.66;;;12.06;100.00
53262;BME280;39658;51.090;-1.786;2023-02-28T09:38:34;102637.59;;;12.29;100.00
53262;BME280;39658;51.090;-1.786;2023-02-28T09:41:04;102640.16;;;10.73;100.00
53262;BME280;39658;51.090;-1.786;2023-02-28T09:43:39;102645.97;;;10.05;100.00
53262;BME280;39658;51.090;-1.786;2023-02-28T09:46:14;102645.75;;;8.30;100.00
53262;BME280;39658;51.090;-1.786;2023-02-28T09:48:48;102657.03;;;7.21;100.00
53262;BME280;39658;51.090;-1.786;2023-02-28T09:51:27;102639.88;;;6.60;100.00
53262;BME280;39658;51.090;-1.786;2023-02-28T09:53:56;102653.84;;;6.09;100.00
53262;BME280;39658;51.090;-1.786;2023-02-28T09:56:27;102658.56;;;5.86;100.00
53262;BME280;39658;51.090;-1.786;2023-02-28T09:59:00;102667.19;;;5.91;100.00
53262;BME280;39658;51.090;-1.786;2023-02-28T10:01:33;102668.88;;;5.95;100.00
53262;BME280;39658;51.090;-1.786;2023-02-28T10:04:08;102671.50;;;5.95;100.00
53262;BME280;39658;51.090;-1.786;2023-02-28T10:06:42;102673.88;;;6.10;100.00
53262;BME280;39658;51.090;-1.786;2023-02-28T10:09:14;102667.69;;;6.16;100.00
53262;BME280;39658;51.090;-1.786;2023-02-28T10:11:46;102665.97;;;6.14;100.00
53262;BME280;39658;51.090;-1.786;2023-02-28T10:14:17;102667.25;;;5.88;100.00
53262;BME280;39658;51.090;-1.786;2023-02-28T10:16:47;102675.22;;;5.80;100.00
53262;BME280;39658;51.090;-1.786;2023-02-28T10:19:23;102675.34;;;5.71;100.00
53262;BME280;39658;51.090;-1.786;2023-02-28T10:21:56;102670.97;;;5.71;100.00
53262;BME280;39658;51.090;-1.786;2023-02-28T10:24:28;102676.75;;;5.97;100.00
53262;BME280;39658;51.090;-1.786;2023-02-28T10:27:00;102667.03;;;6.03;100.00
53262;BME280;39658;51.090;-1.786;2023-02-28T10:29:28;102659.22;;;6.02;100.00
53262;BME280;39658;51.090;-1.786;2023-02-28T10:32:00;102668.88;;;5.95;100.00
53262;BME280;39658;51.090;-1.786;2023-02-28T10:34:29;102669.75;;;5.96;100.00
53262;BME280;39658;51.090;-1.786;2023-02-28T10:36:56;102661.41;;;6.76;100.00
53262;BME280;39658;51.090;-1.786;2023-02-28T10:39:40;102649.25;;;6.72;100.00
53262;BME280;39658;51.090;-1.786;2023-02-28T10:42:20;102648.97;;;6.86;100.00
53262;BME280;39658;51.090;-1.786;2023-02-28T10:45:05;102647.84;;;6.54;100.00
53262;BME280;39658;51.090;-1.786;2023-02-28T10:47:34;102642.94;;;6.36;100.00
53262;BME280;39658;51.090;-1.786;2023-02-28T10:50:03;102643.28;;;6.65;100.00
53262;BME280;39658;51.090;-1.786;2023-02-28T10:52:37;102643.22;;;6.69;100.00
53262;BME280;39658;51.090;-1.786;2023-02-28T10:55:20;102639.25;;;6.46;100.00
53262;BME280;39658;51.090;-1.786;2023-02-28T10:57:47;102645.91;;;6.14;100.00
53262;BME280;39658;51.090;-1.786;2023-02-28T11:00:17;102637.34;;;6.03;100.00
53262;BME280;39658;51.090;-1.786;2023-02-28T11:02:45;102646.09;;;6.03;100.00
53262;BME280;39658;51.090;-1.786;2023-02-28T11:05:28;102641.81;;;5.96;100.00
53262;BME280;39658;51.090;-1.786;2023-02-28T11:07:56;102635.81;;;5.88;100.00
53262;BME280;39658;51.090;-1.786;2023-02-28T11:10:29;102643.97;;;5.68;100.00
53262;BME280;39658;51.090;-1.786;2023-02-28T11:13:00;102644.00;;;5.66;100.00
53262;BME280;39658;51.090;-1.786;2023-02-28T11:15:29;102640.47;;;5.69;100.00
53262;BME280;39658;51.090;-1.786;2023-02-28T11:17:59;102630.53;;;5.92;100.00
53262;BME280;39658;51.090;-1.786;2023-02-28T11:20:30;102629.41;;;6.09;100.00
53262;BME280;39658;51.090;-1.786;2023-02-28T11:22:58;102636.50;;;6.02;100.00
53262;BME280;39658;51.090;-1.786;2023-02-28T11:25:30;102629.59;;;5.98;100.00
53262;BME280;39658;51.090;-1.786;2023-02-28T11:27:59;102629.63;;;5.93;100.00
53262;BME280;39658;51.090;-1.786;2023-02-28T11:30:35;102627.16;;;5.86;100.00
53262;BME280;39658;51.090;-1.786;2023-02-28T11:33:20;102626.97;;;5.98;100.00
53262;BME280;39658;51.090;-1.786;2023-02-28T11:35:50;102632.25;;;5.95;100.00
53262;BME280;39658;51.090;-1.786;2023-02-28T11:38:17;102625.13;;;6.05;100.00
53262;BME280;39658;51.090;-1.786;2023-02-28T11:40:50;102625.09;;;6.06;100.00
53262;BME280;39658;51.090;-1.786;2023-02-28T11:43:34;102617.94;;;6.16;100.00
53262;BME280;39658;51.090;-1.786;2023-02-28T11:46:16;102614.59;;;6.08;100.00
53262;BME280;39658;51.090;-1.786;2023-02-28T11:48:55;102616.16;;;6.17;100.00
53262;BME280;39658;51.090;-1.786;2023-02-28T11:51:28;102619.72;;;6.14;100.00
53262;BME280;39658;51.090;-1.786;2023-02-28T11:56:53;102610.19;;;6.10;100.00
53262;BME280;39658;51.090;-1.786;2023-02-28T11:59:34;102607.53;;;6.11;100.00
53262;BME280;39658;51.090;-1.786;2023-02-28T12:02:24;102602.31;;;6.11;100.00
53262;BME280;39658;51.090;-1.786;2023-02-28T12:05:02;102599.56;;;6.19;100.00
53262;BME280;39658;51.090;-1.786;2023-02-28T12:07:42;102589.63;;;6.37;100.00
53262;BME280;39658;51.090;-1.786;2023-02-28T12:10:21;102594.63;;;6.51;100.00
53262;BME280;39658;51.090;-1.786;2023-02-28T12:12:57;102590.25;;;6.51;100.00
53262;BME280;39658;51.090;-1.786;2023-02-28T12:18:40;102577.91;;;6.56;100.00
53262;BME280;39658;51.090;-1.786;2023-02-28T12:21:14;102572.66;;;6.58;100.00
53262;BME280;39658;51.090;-1.786;2023-02-28T12:23:58;102575.06;;;6.69;100.00
53262;BME280;39658;51.090;-1.786;2023-02-28T12:26:35;102562.72;;;6.74;100.00
53262;BME280;39658;51.090;-1.786;2023-02-28T12:29:10;102545.09;;;7.21;100.00
53262;BME280;39658;51.090;-1.786;2023-02-28T12:31:42;102534.78;;;8.53;100.00
53262;BME280;39658;51.090;-1.786;2023-02-28T12:34:15;102538.63;;;8.08;100.00
53262;BME280;39658;51.090;-1.786;2023-02-28T12:36:44;102540.81;;;7.54;100.00
53262;BME280;39658;51.090;-1.786;2023-02-28T12:39:18;102546.88;;;7.19;100.00
53262;BME280;39658;51.090;-1.786;2023-02-28T12:41:51;102539.66;;;6.90;100.00
53262;BME280;39658;51.090;-1.786;2023-02-28T12:44:22;102549.59;;;6.74;100.00
53262;BME280;39658;51.090;-1.786;2023-02-28T12:46:56;102547.16;;;6.64;100.00
53262;BME280;39658;51.090;-1.786;2023-02-28T12:49:29;102545.59;;;6.57;100.00
53262;BME280;39658;51.090;-1.786;2023-02-28T12:51:59;102537.94;;;6.46;100.00
53262;BME280;39658;51.090;-1.786;2023-02-28T12:54:32;102551.25;;;6.36;100.00
53262;BME280;39658;51.090;-1.786;2023-02-28T12:57:07;102550.38;;;6.34;100.00
53262;BME280;39658;51.090;-1.786;2023-02-28T12:59:38;102547.03;;;6.27;100.00
53262;BME280;39658;51.090;-1.786;2023-02-28T13:06:00;102537.16;;;6.40;100.00